createdAt,value
2022-09-18T00:01:16.017Z,7.41
2022-09-18T00:03:44.111Z,7.41
2022-09-18T00:06:14.658Z,7.37
2022-09-18T00:08:46.029Z,7.37
2022-09-18T00:11:15.184Z,7.37
2022-09-18T00:13:43.158Z,7.37
2022-09-18T00:16:12.176Z,7.36
2022-09-18T00:18:40.089Z,7.36
2022-09-18T00:21:08.363Z,7.33
2022-09-18T00:23:36.044Z,7.28
2022-09-18T00:26:04.762Z,7.26
2022-09-18T00:28:33.116Z,7.19
2022-09-18T00:31:10.817Z,7.20
2022-09-18T00:33:40.076Z,7.24
2022-09-18T00:36:10.802Z,7.21
2022-09-18T00:38:38.255Z,7.29
2022-09-18T00:41:11.418Z,7.28
2022-09-18T00:43:39.111Z,7.33
2022-09-18T00:46:29.631Z,7.35
2022-09-18T00:49:03.161Z,7.36
2022-09-18T00:51:36.530Z,7.39
2022-09-18T00:54:10.799Z,7.41
2022-09-18T00:56:40.656Z,7.38
2022-09-18T00:59:14.773Z,7.39
2022-09-18T01:01:43.428Z,7.41
2022-09-18T01:04:12.423Z,7.43
2022-09-18T01:06:58.564Z,7.45
2022-09-18T01:09:45.695Z,7.43
2022-09-18T01:12:42.648Z,7.44
2022-09-18T01:15:22.294Z,7.47
2022-09-18T01:17:50.011Z,7.43
2022-09-18T01:20:37.317Z,7.41
2022-09-18T01:23:32.584Z,7.44
2022-09-18T01:26:44.298Z,7.39
2022-09-18T01:29:21.756Z,7.37
2022-09-18T01:31:58.714Z,7.34
2022-09-18T01:34:45.288Z,7.30
2022-09-18T01:37:22.748Z,7.31
2022-09-18T01:40:00.390Z,7.30
2022-09-18T01:42:31.373Z,7.28
2022-09-18T01:45:02.217Z,7.28
2022-09-18T01:47:36.545Z,7.24
2022-09-18T01:50:05.281Z,7.20
2022-09-18T01:52:42.202Z,7.21
2022-09-18T01:55:17.186Z,7.16
2022-09-18T01:58:03.193Z,7.15
2022-09-18T02:00:31.930Z,7.14
2022-09-18T02:03:05.579Z,7.12
2022-09-18T02:05:40.533Z,7.13
2022-09-18T02:08:26.357Z,7.16
2022-09-18T02:11:05.065Z,7.18
2022-09-18T02:13:39.087Z,7.13
2022-09-18T02:16:13.596Z,7.12
2022-09-18T02:18:45.283Z,7.14
2022-09-18T02:21:16.825Z,7.16
2022-09-18T02:23:45.781Z,7.17
2022-09-18T02:26:14.950Z,7.18
2022-09-18T02:28:44.699Z,7.19
2022-09-18T02:31:13.059Z,7.18
2022-09-18T02:33:40.694Z,7.21
2022-09-18T02:36:38.145Z,7.18
2022-09-18T02:39:24.239Z,7.16
2022-09-18T02:42:19.876Z,7.16
2022-09-18T02:45:01.917Z,7.16
2022-09-18T02:47:58.611Z,7.15
2022-09-18T02:51:10.413Z,7.18
2022-09-18T02:53:52.308Z,7.16
2022-09-18T02:56:35.725Z,7.14
2022-09-18T02:59:37.030Z,7.13
2022-09-18T03:02:06.630Z,7.10
2022-09-18T03:04:36.239Z,7.09
2022-09-18T03:07:05.497Z,7.08
2022-09-18T03:09:39.688Z,7.09
2022-09-18T03:12:06.867Z,7.06
2022-09-18T03:14:38.844Z,7.10
2022-09-18T03:17:06.102Z,7.09
2022-09-18T03:19:33.847Z,7.08
2022-09-18T03:22:03.002Z,7.07
2022-09-18T03:24:33.054Z,7.09
2022-09-18T03:27:00.385Z,7.09
2022-09-18T03:29:28.985Z,7.11
2022-09-18T03:31:57.359Z,7.09
2022-09-18T03:34:24.926Z,7.07
2022-09-18T03:36:52.336Z,7.10
2022-09-18T03:39:20.397Z,7.09
2022-09-18T03:41:50.270Z,7.07
2022-09-18T03:44:17.636Z,7.03
2022-09-18T03:46:45.970Z,7.03
2022-09-18T03:49:13.701Z,7.05
2022-09-18T03:51:41.931Z,7.05
2022-09-18T03:54:09.194Z,7.03
2022-09-18T03:56:56.771Z,7.02
2022-09-18T03:59:24.122Z,6.99
2022-09-18T04:01:52.700Z,6.98
2022-09-18T04:04:26.710Z,7.00
2022-09-18T04:07:20.543Z,7.00
2022-09-18T04:09:59.461Z,6.99
2022-09-18T04:12:27.293Z,6.98
2022-09-18T04:15:07.450Z,6.93
2022-09-18T04:17:36.080Z,6.94
2022-09-18T04:20:05.066Z,6.98
2022-09-18T04:22:32.347Z,6.98
2022-09-18T04:24:59.633Z,6.95
2022-09-18T04:27:27.232Z,6.95
2022-09-18T04:29:54.557Z,6.97
2022-09-18T04:32:23.438Z,6.99
2022-09-18T04:34:50.648Z,7.00
2022-09-18T04:37:18.224Z,6.98
2022-09-18T04:39:47.032Z,6.98
2022-09-18T04:42:14.819Z,6.98
2022-09-18T04:44:42.182Z,6.97
2022-09-18T04:47:11.249Z,6.99
2022-09-18T04:49:41.797Z,6.97
2022-09-18T04:52:09.025Z,6.93
2022-09-18T04:54:36.128Z,6.92
2022-09-18T04:57:04.174Z,6.90
2022-09-18T04:59:31.379Z,6.91
2022-09-18T05:02:00.069Z,6.88
2022-09-18T05:04:27.289Z,6.87
2022-09-18T05:07:07.766Z,6.89
2022-09-18T05:09:37.059Z,6.86
2022-09-18T05:12:06.964Z,6.89
2022-09-18T05:14:36.523Z,6.85
2022-09-18T05:17:06.494Z,6.87
2022-09-18T05:19:37.607Z,6.86
2022-09-18T05:22:12.536Z,6.89
2022-09-18T05:24:43.714Z,6.86
2022-09-18T05:27:13.590Z,6.88
2022-09-18T05:29:41.016Z,6.85
2022-09-18T05:32:20.436Z,6.88
2022-09-18T05:34:50.079Z,6.90
2022-09-18T05:37:18.571Z,6.88
2022-09-18T05:39:49.855Z,6.87
2022-09-18T05:42:16.943Z,6.92
2022-09-18T05:44:44.582Z,6.88
2022-09-18T05:47:19.297Z,6.90
2022-09-18T05:49:46.640Z,6.92
2022-09-18T05:52:15.676Z,7.00
2022-09-18T05:54:49.596Z,6.97
2022-09-18T05:57:16.688Z,7.01
2022-09-18T05:59:48.443Z,6.97
2022-09-18T06:02:15.815Z,6.99
2022-09-18T06:04:58.750Z,6.97
2022-09-18T06:07:26.826Z,6.99
2022-09-18T06:09:54.255Z,7.02
2022-09-18T06:12:23.611Z,7.02
2022-09-18T06:14:50.807Z,7.07
2022-09-18T06:17:19.047Z,7.15
2022-09-18T06:19:50.478Z,7.30
2022-09-18T06:22:17.620Z,7.32
2022-09-18T06:24:44.994Z,7.36
2022-09-18T06:27:17.748Z,7.31
2022-09-18T06:29:45.427Z,7.37
2022-09-18T06:32:16.292Z,7.33
2022-09-18T06:34:43.641Z,7.30
2022-09-18T06:37:14.667Z,7.34
2022-09-18T06:39:45.706Z,7.39
2022-09-18T06:42:46.114Z,7.47
2022-09-18T06:45:34.113Z,7.53
2022-09-18T06:48:20.575Z,7.54
2022-09-18T06:50:52.927Z,7.56
2022-09-18T06:53:21.527Z,7.52
2022-09-18T06:56:09.289Z,7.66
2022-09-18T06:58:37.291Z,7.64
2022-09-18T07:01:05.561Z,7.55
2022-09-18T07:03:39.467Z,7.55
2022-09-18T07:06:39.030Z,7.56
2022-09-18T07:09:06.334Z,7.61
2022-09-18T07:11:51.908Z,7.56
2022-09-18T07:14:19.731Z,7.60
2022-09-18T07:16:49.077Z,7.72
2022-09-18T07:19:17.598Z,7.85
2022-09-18T07:21:44.886Z,7.97
2022-09-18T07:24:12.437Z,8.16
2022-09-18T07:26:39.957Z,8.08
2022-09-18T07:29:10.214Z,8.13
2022-09-18T07:31:38.013Z,8.18
2022-09-18T07:34:09.494Z,8.31
2022-09-18T07:36:37.027Z,8.36
2022-09-18T07:39:05.228Z,8.32
2022-09-18T07:41:45.293Z,8.26
2022-09-18T07:44:12.720Z,8.35
2022-09-18T07:46:39.977Z,8.51
2022-09-18T07:49:09.482Z,8.57
2022-09-18T07:51:37.204Z,8.63
2022-09-18T07:54:05.114Z,8.61
2022-09-18T07:56:48.331Z,8.82
2022-09-18T07:59:19.825Z,9.30
2022-09-18T08:01:55.643Z,9.42
2022-09-18T08:04:25.561Z,9.26
2022-09-18T08:07:17.244Z,9.04
2022-09-18T08:10:08.430Z,9.07
2022-09-18T08:12:55.609Z,9.04
2022-09-18T08:15:45.435Z,9.07
2022-09-18T08:18:31.299Z,8.90
2022-09-18T08:21:21.677Z,8.85
2022-09-18T08:23:51.751Z,8.85
2022-09-18T08:26:22.296Z,9.19
2022-09-18T08:28:52.696Z,9.38
2022-09-18T08:31:20.027Z,9.62
2022-09-18T08:33:47.406Z,10.02
2022-09-18T08:36:15.270Z,10.10
2022-09-18T08:38:55.917Z,10.30
2022-09-18T08:41:42.981Z,10.40
2022-09-18T08:44:13.855Z,10.34
2022-09-18T08:46:50.915Z,10.23
2022-09-18T08:49:37.842Z,10.08
2022-09-18T08:52:16.674Z,9.93
2022-09-18T08:54:57.936Z,9.81
2022-09-18T08:57:46.955Z,9.94
2022-09-18T09:00:31.406Z,10.11
2022-09-18T09:03:26.503Z,10.18
2022-09-18T09:06:26.094Z,10.06
2022-09-18T09:09:31.099Z,9.88
2022-09-18T09:12:31.370Z,9.75
2022-09-18T09:15:25.266Z,9.92
2022-09-18T09:18:18.318Z,10.21
2022-09-18T09:20:54.012Z,10.56
2022-09-18T09:23:59.175Z,10.70
2022-09-18T09:26:45.430Z,11.38
2022-09-18T09:29:37.519Z,11.66
2022-09-18T09:33:01.810Z,11.33
2022-09-18T09:35:43.020Z,11.26
2022-09-18T09:38:41.444Z,10.95
2022-09-18T09:41:17.875Z,10.88
2022-09-18T09:43:54.818Z,10.59
2022-09-18T09:46:44.855Z,10.36
2022-09-18T09:49:25.128Z,10.36
2022-09-18T09:52:09.297Z,10.42
2022-09-18T09:54:37.657Z,10.52
2022-09-18T09:57:21.295Z,10.76
2022-09-18T10:00:15.348Z,10.92
2022-09-18T10:03:24.178Z,11.00
2022-09-18T10:06:06.323Z,11.60
2022-09-18T10:08:42.615Z,11.45
2022-09-18T10:11:13.213Z,11.25
2022-09-18T10:14:00.884Z,11.59
2022-09-18T10:16:40.628Z,11.86
2022-09-18T10:19:18.766Z,11.87
2022-09-18T10:21:49.903Z,11.61
2022-09-18T10:24:22.863Z,11.47
2022-09-18T10:27:03.554Z,11.69
2022-09-18T10:29:35.713Z,12.27
2022-09-18T10:32:08.141Z,12.49
2022-09-18T10:34:45.176Z,12.33
2022-09-18T10:37:18.512Z,12.17
2022-09-18T10:39:53.721Z,12.45
2022-09-18T10:42:25.570Z,12.36
2022-09-18T10:45:20.189Z,12.28
2022-09-18T10:47:48.972Z,11.46
2022-09-18T10:50:19.454Z,11.15
2022-09-18T10:52:49.437Z,10.89
2022-09-18T10:55:25.710Z,11.02
2022-09-18T10:58:14.190Z,11.03
2022-09-18T11:01:08.301Z,11.14
2022-09-18T11:03:49.753Z,11.24
2022-09-18T11:06:28.793Z,11.88
2022-09-18T11:09:08.187Z,11.72
2022-09-18T11:11:42.633Z,11.23
2022-09-18T11:14:23.683Z,10.20
2022-09-18T11:17:36.071Z,9.13
2022-09-18T11:20:08.833Z,8.34
2022-09-18T11:22:48.107Z,8.06
2022-09-18T11:25:26.965Z,8.08
2022-09-18T11:28:28.674Z,8.31
2022-09-18T11:31:01.815Z,8.70
2022-09-18T11:33:53.486Z,8.92
2022-09-18T11:36:32.675Z,8.85
2022-09-18T11:39:03.675Z,8.88
2022-09-18T11:41:36.846Z,9.30
2022-09-18T11:44:21.578Z,9.44
2022-09-18T11:47:18.490Z,10.02
2022-09-18T11:50:15.097Z,10.39
2022-09-18T11:52:51.017Z,10.90
2022-09-18T11:55:31.115Z,11.47
2022-09-18T11:58:13.154Z,11.97
2022-09-18T12:00:47.304Z,11.64
2022-09-18T12:03:24.506Z,11.42
2022-09-18T12:05:59.182Z,11.23
2022-09-18T12:08:36.587Z,10.79
2022-09-18T12:11:37.432Z,10.49
2022-09-18T12:14:12.974Z,10.27
2022-09-18T12:17:02.119Z,10.19
2022-09-18T12:19:37.921Z,10.19
2022-09-18T12:22:14.852Z,10.11
2022-09-18T12:24:42.565Z,10.19
2022-09-18T12:27:27.781Z,10.39
2022-09-18T12:30:15.307Z,10.93
2022-09-18T12:33:22.861Z,11.51
2022-09-18T12:35:51.391Z,11.78
2022-09-18T12:38:27.916Z,11.64
2022-09-18T12:41:14.047Z,11.48
2022-09-18T12:43:41.199Z,11.85
2022-09-18T12:46:21.351Z,12.02
2022-09-18T12:48:51.378Z,11.93
2022-09-18T12:51:32.002Z,12.10
2022-09-18T12:54:21.100Z,12.13
2022-09-18T12:57:16.435Z,12.35
2022-09-18T13:00:12.629Z,12.26
2022-09-18T13:02:59.459Z,12.40
2022-09-18T13:05:36.890Z,12.41
2022-09-18T13:08:41.821Z,12.57
2022-09-18T13:11:42.259Z,12.92
2022-09-18T13:14:22.111Z,12.84
2022-09-18T13:17:06.518Z,12.40
2022-09-18T13:19:39.883Z,12.28
2022-09-18T13:22:15.150Z,11.95
2022-09-18T13:24:46.859Z,11.93
2022-09-18T13:27:16.393Z,11.82
2022-09-18T13:29:52.611Z,11.68
2022-09-18T13:32:37.612Z,11.53
2022-09-18T13:35:26.503Z,11.39
2022-09-18T13:38:14.698Z,11.30
2022-09-18T13:40:56.029Z,11.46
2022-09-18T13:43:29.429Z,11.45
2022-09-18T13:46:00.210Z,11.40
2022-09-18T13:48:36.155Z,11.27
2022-09-18T13:51:08.783Z,11.18
2022-09-18T13:53:37.459Z,11.30
2022-09-18T13:56:08.027Z,11.40
2022-09-18T13:58:48.162Z,11.35
2022-09-18T14:01:44.073Z,11.26
2022-09-18T14:04:39.255Z,11.16
2022-09-18T14:07:18.485Z,10.92
2022-09-18T14:09:55.723Z,10.28
2022-09-18T14:12:24.062Z,9.85
2022-09-18T14:15:25.942Z,9.48
2022-09-18T14:18:15.526Z,9.27
2022-09-18T14:20:51.346Z,9.25
2022-09-18T14:23:37.513Z,9.23
2022-09-18T14:26:29.074Z,9.24
2022-09-18T14:29:12.822Z,9.24
2022-09-18T14:32:17.239Z,9.25
2022-09-18T14:34:45.844Z,9.11
2022-09-18T14:37:35.225Z,8.95
2022-09-18T14:40:18.184Z,8.91
2022-09-18T14:42:45.560Z,8.70
2022-09-18T14:45:13.048Z,8.56
2022-09-18T14:47:43.387Z,8.46
2022-09-18T14:50:29.502Z,8.39
2022-09-18T14:52:58.590Z,8.28
2022-09-18T14:55:35.179Z,8.17
2022-09-18T14:58:07.792Z,8.13
2022-09-18T15:00:38.655Z,8.10
2022-09-18T15:03:14.203Z,8.11
2022-09-18T15:05:41.390Z,8.07
2022-09-18T15:08:17.169Z,8.04
2022-09-18T15:10:48.286Z,8.01
2022-09-18T15:13:17.261Z,7.99
2022-09-18T15:15:46.205Z,7.99
2022-09-18T15:18:27.547Z,8.03
2022-09-18T15:20:58.179Z,8.01
2022-09-18T15:23:30.088Z,8.00
2022-09-18T15:26:02.572Z,8.01
2022-09-18T15:28:33.488Z,8.01
2022-09-18T15:31:04.734Z,8.03
2022-09-18T15:33:35.287Z,8.04
2022-09-18T15:36:04.672Z,8.07
2022-09-18T15:38:45.894Z,8.10
2022-09-18T15:41:29.087Z,8.12
2022-09-18T15:43:56.463Z,8.09
2022-09-18T15:46:25.211Z,8.14
2022-09-18T15:48:52.563Z,8.11
2022-09-18T15:51:25.552Z,8.14
2022-09-18T15:54:09.158Z,8.13
2022-09-18T15:56:39.742Z,8.18
2022-09-18T15:59:27.759Z,8.19
2022-09-18T16:01:55.417Z,8.17
2022-09-18T16:04:34.505Z,8.16
2022-09-18T16:07:06.407Z,8.23
2022-09-18T16:09:37.137Z,8.26
2022-09-18T16:12:25.998Z,8.28
2022-09-18T16:15:14.833Z,8.32
2022-09-18T16:17:44.820Z,8.37
2022-09-18T16:20:23.184Z,8.31
2022-09-18T16:22:53.317Z,8.32
2022-09-18T16:25:29.797Z,8.31
2022-09-18T16:27:58.932Z,8.32
2022-09-18T16:30:27.412Z,8.36
2022-09-18T16:33:01.371Z,8.37
2022-09-18T16:35:28.775Z,8.35
2022-09-18T16:37:56.059Z,8.38
2022-09-18T16:40:27.645Z,8.42
2022-09-18T16:42:56.753Z,8.41
2022-09-18T16:45:27.100Z,8.37
2022-09-18T16:48:00.349Z,8.33
2022-09-18T16:50:28.048Z,8.33
2022-09-18T16:52:58.584Z,8.35
2022-09-18T16:55:28.927Z,8.32
2022-09-18T16:57:56.981Z,8.35
2022-09-18T17:00:24.467Z,8.30
2022-09-18T17:02:52.430Z,8.28
2022-09-18T17:05:19.610Z,8.24
2022-09-18T17:07:46.636Z,8.23
2022-09-18T17:10:13.985Z,8.19
2022-09-18T17:12:41.819Z,8.19
2022-09-18T17:15:09.606Z,8.22
2022-09-18T17:17:37.167Z,8.18
2022-09-18T17:20:06.205Z,8.16
2022-09-18T17:22:33.487Z,8.20
2022-09-18T17:25:00.868Z,8.20
2022-09-18T17:27:28.206Z,8.19
2022-09-18T17:29:55.486Z,8.22
2022-09-18T17:32:22.753Z,8.12
2022-09-18T17:34:50.025Z,8.09
2022-09-18T17:37:17.152Z,8.07
2022-09-18T17:39:46.298Z,8.05
2022-09-18T17:42:14.997Z,8.00
2022-09-18T17:44:42.159Z,7.98
2022-09-18T17:47:09.539Z,7.91
2022-09-18T17:49:36.801Z,7.92
2022-09-18T17:52:05.088Z,7.86
2022-09-18T17:54:34.469Z,7.84
2022-09-18T17:57:03.200Z,7.85
2022-09-18T17:59:30.513Z,7.81
2022-09-18T18:01:57.792Z,7.79
2022-09-18T18:04:24.911Z,7.74
2022-09-18T18:06:52.332Z,7.68
2022-09-18T18:09:19.596Z,7.64
2022-09-18T18:11:46.902Z,7.62
2022-09-18T18:14:14.657Z,7.61
2022-09-18T18:16:41.792Z,7.51
2022-09-18T18:19:14.378Z,7.43
2022-09-18T18:21:42.511Z,7.37
2022-09-18T18:24:16.356Z,7.38
2022-09-18T18:26:44.592Z,7.36
2022-09-18T18:29:14.485Z,7.39
2022-09-18T18:31:43.208Z,7.41
2022-09-18T18:34:12.162Z,7.41
2022-09-18T18:36:41.764Z,7.41
2022-09-18T18:39:13.012Z,7.43
2022-09-18T18:41:40.868Z,7.47
2022-09-18T18:44:11.706Z,7.44
2022-09-18T18:46:39.922Z,7.34
2022-09-18T18:49:10.976Z,7.32
2022-09-18T18:51:43.003Z,7.31
2022-09-18T18:54:11.094Z,7.28
2022-09-18T18:56:41.499Z,7.27
2022-09-18T18:59:12.618Z,7.29
2022-09-18T19:01:40.904Z,7.25
2022-09-18T19:04:11.464Z,7.24
2022-09-18T19:06:41.496Z,7.22
2022-09-18T19:09:12.362Z,7.29
2022-09-18T19:11:48.262Z,7.23
2022-09-18T19:14:18.741Z,7.16
2022-09-18T19:16:47.326Z,7.17
2022-09-18T19:19:16.299Z,7.14
2022-09-18T19:21:43.731Z,7.14
2022-09-18T19:24:12.102Z,7.10
2022-09-18T19:26:41.371Z,7.16
2022-09-18T19:29:12.724Z,7.09
2022-09-18T19:31:42.710Z,7.08
2022-09-18T19:34:15.489Z,7.08
2022-09-18T19:36:46.739Z,7.04
2022-09-18T19:39:16.609Z,7.02
2022-09-18T19:42:05.744Z,6.96
2022-09-18T19:44:52.296Z,6.96
2022-09-18T19:47:25.333Z,6.96
2022-09-18T19:49:55.401Z,7.00
2022-09-18T19:52:25.000Z,6.92
2022-09-18T19:54:53.977Z,6.94
2022-09-18T19:57:23.175Z,6.92
2022-09-18T19:59:55.220Z,6.87
2022-09-18T20:02:24.543Z,6.88
2022-09-18T20:04:52.356Z,6.87
2022-09-18T20:07:19.792Z,6.82
2022-09-18T20:09:47.605Z,6.86
2022-09-18T20:12:14.943Z,6.80
2022-09-18T20:14:42.175Z,6.79
2022-09-18T20:17:10.269Z,6.80
2022-09-18T20:19:37.888Z,6.75
2022-09-18T20:22:05.464Z,6.77
2022-09-18T20:24:33.858Z,6.72
2022-09-18T20:27:01.633Z,6.69
2022-09-18T20:29:31.763Z,6.70
2022-09-18T20:32:01.264Z,6.70
2022-09-18T20:34:40.043Z,6.68
2022-09-18T20:37:10.065Z,6.69
2022-09-18T20:39:38.345Z,6.62
2022-09-18T20:42:07.373Z,6.62
2022-09-18T20:44:43.172Z,6.63
2022-09-18T20:47:18.608Z,6.60
2022-09-18T20:49:50.024Z,6.61
2022-09-18T20:52:18.661Z,6.56
2022-09-18T20:54:52.353Z,6.53
2022-09-18T20:57:20.019Z,6.56
2022-09-18T20:59:52.220Z,6.58
2022-09-18T21:02:27.449Z,6.53
2022-09-18T21:05:22.601Z,6.51
2022-09-18T21:08:05.611Z,6.45
2022-09-18T21:10:48.587Z,6.40
2022-09-18T21:13:33.919Z,6.43
2022-09-18T21:16:06.790Z,6.44
2022-09-18T21:18:42.472Z,6.39
2022-09-18T21:21:16.971Z,6.40
2022-09-18T21:24:02.565Z,6.42
2022-09-18T21:26:47.307Z,6.46
2022-09-18T21:29:32.989Z,6.48
2022-09-18T21:32:04.655Z,6.47
2022-09-18T21:34:38.465Z,6.51
2022-09-18T21:37:19.487Z,6.49
2022-09-18T21:40:02.848Z,6.46
2022-09-18T21:45:51.252Z,6.56
2022-09-18T21:48:27.756Z,6.62
2022-09-18T21:51:21.278Z,6.68
2022-09-18T21:53:54.623Z,6.65
2022-09-18T21:56:36.899Z,6.72
2022-09-18T21:59:08.608Z,6.78
2022-09-18T22:01:46.974Z,6.80
2022-09-18T22:04:23.999Z,6.82
2022-09-18T22:07:00.951Z,6.92
2022-09-18T22:09:39.723Z,6.94
2022-09-18T22:12:30.671Z,6.99
2022-09-18T22:15:00.656Z,7.04
2022-09-18T22:17:30.913Z,7.10
2022-09-18T22:20:01.962Z,7.13
2022-09-18T22:22:34.176Z,7.11
2022-09-18T22:25:04.638Z,7.14
2022-09-18T22:27:42.684Z,7.17
2022-09-18T22:30:17.060Z,7.23
2022-09-18T22:32:57.286Z,7.21
2022-09-18T22:35:42.879Z,7.28
2022-09-18T22:38:46.734Z,7.29
2022-09-18T22:41:19.026Z,7.32
2022-09-18T22:43:49.768Z,7.31
2022-09-18T22:46:22.962Z,7.34
2022-09-18T22:49:14.807Z,7.36
2022-09-18T22:51:57.881Z,7.32
2022-09-18T22:54:56.151Z,7.18
2022-09-18T22:57:48.406Z,7.10
2022-09-18T23:00:35.195Z,7.05
2022-09-18T23:03:36.807Z,6.95
2022-09-18T23:09:56.622Z,6.81
2022-09-18T23:17:09.887Z,6.72
2022-09-18T23:20:56.547Z,6.74
2022-09-18T23:27:59.843Z,6.59
2022-09-18T23:31:01.632Z,6.57
2022-09-18T23:34:26.861Z,6.56
2022-09-18T23:37:47.225Z,6.61
2022-09-18T23:40:44.123Z,6.63
2022-09-18T23:44:12.105Z,6.55
2022-09-18T23:46:53.664Z,6.57
2022-09-18T23:49:31.611Z,6.55
2022-09-18T23:52:50.839Z,6.59
2022-09-18T23:56:23.055Z,6.57
